createdAt,value
2019-05-18T00:00:06.920Z,378.80
2019-05-18T00:00:42.404Z,382.20
2019-05-18T00:01:17.730Z,371.80
2019-05-18T00:01:53.005Z,375.40
2019-05-18T00:02:28.667Z,365.50
2019-05-18T00:03:04.058Z,373.70
2019-05-18T00:03:39.159Z,390.00
2019-05-18T00:04:14.435Z,374.60
2019-05-18T00:04:49.746Z,398.40
2019-05-18T00:05:25.232Z,400.00
2019-05-18T00:06:00.458Z,389.40
2019-05-18T00:06:35.667Z,373.60
2019-05-18T00:07:11.074Z,361.60
2019-05-18T00:07:46.312Z,381.20
2019-05-18T00:08:21.901Z,396.40
2019-05-18T00:08:57.244Z,398.50
2019-05-18T00:09:32.999Z,387.50
2019-05-18T00:10:08.275Z,394.10
2019-05-18T00:10:43.790Z,388.90
2019-05-18T00:11:18.986Z,385.00
2019-05-18T00:11:54.211Z,385.80
2019-05-18T00:12:29.397Z,374.70
2019-05-18T00:13:04.651Z,375.50
2019-05-18T00:13:40.038Z,358.80
2019-05-18T00:14:15.357Z,370.00
2019-05-18T00:14:50.741Z,364.90
2019-05-18T00:15:25.859Z,368.00
2019-05-18T00:16:01.242Z,380.50
2019-05-18T00:16:36.956Z,360.60
2019-05-18T00:17:24.451Z,360.60
2019-05-18T00:17:47.562Z,364.50
2019-05-18T00:18:22.907Z,363.90
2019-05-18T00:18:58.202Z,396.00
2019-05-18T00:19:33.572Z,362.20
2019-05-18T00:20:09.010Z,356.40
2019-05-18T00:20:44.398Z,350.20
2019-05-18T00:21:19.830Z,363.50
2019-05-18T00:21:55.112Z,385.50
2019-05-18T00:22:30.425Z,381.30
2019-05-18T00:23:05.710Z,375.80
2019-05-18T00:23:41.065Z,387.60
2019-05-18T00:24:16.471Z,402.10
2019-05-18T00:24:51.491Z,393.70
2019-05-18T00:25:26.998Z,381.80
2019-05-18T00:26:02.407Z,396.80
2019-05-18T00:26:37.783Z,384.40
2019-05-18T00:27:13.100Z,377.00
2019-05-18T00:27:48.674Z,391.40
2019-05-18T00:28:24.189Z,396.70
2019-05-18T00:28:59.608Z,391.00
2019-05-18T00:29:34.922Z,365.70
2019-05-18T00:30:10.124Z,367.20
2019-05-18T00:30:45.529Z,391.60
2019-05-18T00:31:21.009Z,393.30
2019-05-18T00:31:56.722Z,366.10
2019-05-18T00:32:32.105Z,383.70
2019-05-18T00:33:07.215Z,380.80
2019-05-18T00:33:42.708Z,373.60
2019-05-18T00:34:18.348Z,371.30
2019-05-18T00:34:53.621Z,389.50
2019-05-18T00:35:28.955Z,387.80
2019-05-18T00:36:04.429Z,378.40
2019-05-18T00:36:39.833Z,391.50
2019-05-18T00:37:15.318Z,359.40
2019-05-18T00:37:50.544Z,365.10
2019-05-18T00:38:25.931Z,402.10
2019-05-18T00:39:01.054Z,403.90
2019-05-18T00:39:36.268Z,382.10
2019-05-18T00:40:11.394Z,361.30
2019-05-18T00:40:46.562Z,382.30
2019-05-18T00:41:21.940Z,387.60
2019-05-18T00:41:57.355Z,369.20
2019-05-18T00:42:32.881Z,364.40
2019-05-18T00:43:08.166Z,370.30
2019-05-18T00:43:43.587Z,386.50
2019-05-18T00:44:18.874Z,409.50
2019-05-18T00:44:54.240Z,408.70
2019-05-18T00:45:29.718Z,398.40
2019-05-18T00:46:05.140Z,377.80
2019-05-18T00:46:40.525Z,384.60
2019-05-18T00:47:15.756Z,399.40
2019-05-18T00:47:50.938Z,403.20
2019-05-18T00:48:26.079Z,392.40
2019-05-18T00:49:01.473Z,382.40
2019-05-18T00:49:36.899Z,373.50
2019-05-18T00:50:12.322Z,372.80
2019-05-18T00:50:47.657Z,378.00
2019-05-18T00:51:23.358Z,360.60
2019-05-18T00:51:58.361Z,370.90
2019-05-18T00:52:33.653Z,367.00
2019-05-18T00:53:09.164Z,355.90
2019-05-18T00:53:44.641Z,335.50
2019-05-18T00:54:19.861Z,343.70
2019-05-18T00:54:55.263Z,359.20
2019-05-18T00:55:30.587Z,366.30
2019-05-18T00:56:06.199Z,376.30
2019-05-18T00:56:41.494Z,354.00
2019-05-18T00:57:16.792Z,348.20
2019-05-18T00:57:52.213Z,346.10
2019-05-18T00:58:27.303Z,365.20
2019-05-18T00:59:02.930Z,359.50
2019-05-18T00:59:38.218Z,336.60
2019-05-18T01:00:13.547Z,350.40
2019-05-18T01:00:48.659Z,352.70
2019-05-18T01:01:24.079Z,354.10
2019-05-18T01:01:59.377Z,336.20
2019-05-18T01:02:34.693Z,342.40
2019-05-18T01:03:09.791Z,340.90
2019-05-18T01:03:45.110Z,334.10
2019-05-18T01:04:20.401Z,357.70
2019-05-18T01:04:55.708Z,363.40
2019-05-18T01:05:31.092Z,348.30
2019-05-18T01:06:06.537Z,338.00
2019-05-18T01:06:41.821Z,337.80
2019-05-18T01:07:17.047Z,336.30
2019-05-18T01:07:52.335Z,362.60
2019-05-18T01:08:27.548Z,328.00
2019-05-18T01:09:02.743Z,317.30
2019-05-18T01:09:37.777Z,339.70
2019-05-18T01:10:13.727Z,349.10
2019-05-18T01:10:48.955Z,329.60
2019-05-18T01:11:24.284Z,314.60
2019-05-18T01:11:59.496Z,336.30
2019-05-18T01:12:34.866Z,334.60
2019-05-18T01:13:10.087Z,319.80
2019-05-18T01:13:45.274Z,339.60
2019-05-18T01:14:20.887Z,335.20
2019-05-18T01:14:56.374Z,323.70
2019-05-18T01:15:31.679Z,337.50
2019-05-18T01:16:07.157Z,338.80
2019-05-18T01:16:42.621Z,331.80
2019-05-18T01:17:18.212Z,310.20
2019-05-18T01:17:57.524Z,302.30
2019-05-18T01:18:28.912Z,305.50
2019-05-18T01:19:04.135Z,299.10
2019-05-18T01:19:39.319Z,333.10
2019-05-18T01:20:14.755Z,321.40
2019-05-18T01:20:49.933Z,297.00
2019-05-18T01:21:25.355Z,305.70
2019-05-18T01:22:00.883Z,296.10
2019-05-18T01:22:36.208Z,310.20
2019-05-18T01:23:11.406Z,338.80
2019-05-18T01:23:46.645Z,326.90
2019-05-18T01:24:22.232Z,308.20
2019-05-18T01:24:57.563Z,314.10
2019-05-18T01:25:33.251Z,321.70
2019-05-18T01:26:08.399Z,327.70
2019-05-18T01:26:44.075Z,345.20
2019-05-18T01:27:19.429Z,335.20
2019-05-18T01:27:54.532Z,316.80
2019-05-18T01:28:29.755Z,311.60
2019-05-18T01:29:04.735Z,307.60
2019-05-18T01:29:40.798Z,332.00
2019-05-18T01:30:16.204Z,334.70
2019-05-18T01:30:51.924Z,346.30
2019-05-18T01:31:27.206Z,329.80
2019-05-18T01:32:02.634Z,321.10
2019-05-18T01:32:37.946Z,316.10
2019-05-18T01:33:13.271Z,323.80
2019-05-18T01:33:48.655Z,345.20
2019-05-18T01:34:24.372Z,335.30
2019-05-18T01:34:59.962Z,326.40
2019-05-18T01:35:35.200Z,321.00
2019-05-18T01:36:10.294Z,333.80
2019-05-18T01:36:45.610Z,361.40
2019-05-18T01:37:20.789Z,365.90
2019-05-18T01:37:56.464Z,341.90
2019-05-18T01:38:31.821Z,330.10
2019-05-18T01:39:06.893Z,331.50
2019-05-18T01:39:42.385Z,342.50
2019-05-18T01:40:17.816Z,342.90
2019-05-18T01:40:53.201Z,336.90
2019-05-18T01:41:28.505Z,351.10
2019-05-18T01:42:03.880Z,323.40
2019-05-18T01:42:39.203Z,305.90
2019-05-18T01:43:14.428Z,345.10
2019-05-18T01:43:49.647Z,351.30
2019-05-18T01:44:25.041Z,344.10
2019-05-18T01:45:08.370Z,312.60
2019-05-18T01:45:35.556Z,325.80
2019-05-18T01:46:10.680Z,341.10
2019-05-18T01:46:45.960Z,350.90
2019-05-18T01:47:21.395Z,322.40
2019-05-18T01:48:10.987Z,320.20
2019-05-18T01:48:32.042Z,337.60
2019-05-18T01:49:07.320Z,332.30
2019-05-18T01:49:42.673Z,342.70
2019-05-18T01:50:18.234Z,305.60
2019-05-18T01:50:53.444Z,303.50
2019-05-18T01:51:28.727Z,322.40
2019-05-18T01:52:04.156Z,314.90
2019-05-18T01:52:39.446Z,309.90
2019-05-18T01:53:14.972Z,322.80
2019-05-18T01:53:50.292Z,320.30
2019-05-18T01:54:25.603Z,306.40
2019-05-18T01:55:00.601Z,329.50
2019-05-18T01:55:36.017Z,325.40
2019-05-18T01:56:11.298Z,329.50
2019-05-18T01:56:46.525Z,327.00
2019-05-18T01:57:21.919Z,310.00
2019-05-18T01:57:57.647Z,308.90
2019-05-18T01:58:33.032Z,327.50
2019-05-18T01:59:08.494Z,341.90
2019-05-18T01:59:43.772Z,346.40
2019-05-18T02:00:19.005Z,335.10
2019-05-18T02:00:54.293Z,296.00
2019-05-18T02:01:29.718Z,308.80
2019-05-18T02:02:05.101Z,334.90
2019-05-18T02:02:40.365Z,329.20
2019-05-18T02:03:15.538Z,308.30
2019-05-18T02:03:50.957Z,295.50
2019-05-18T02:04:26.172Z,301.00
2019-05-18T02:05:01.509Z,307.70
2019-05-18T02:05:37.093Z,318.30
2019-05-18T02:06:12.408Z,334.30
2019-05-18T02:06:47.589Z,314.20
2019-05-18T02:07:23.105Z,289.20
2019-05-18T02:07:58.929Z,310.70
2019-05-18T02:08:34.567Z,315.90
2019-05-18T02:09:09.763Z,328.70
2019-05-18T02:09:45.017Z,333.60
2019-05-18T02:10:20.198Z,328.70
2019-05-18T02:10:55.908Z,325.00
2019-05-18T02:11:31.416Z,319.30
2019-05-18T02:12:06.747Z,290.80
2019-05-18T02:12:42.287Z,312.00
2019-05-18T02:13:17.711Z,335.00
2019-05-18T02:13:53.310Z,318.10
2019-05-18T02:14:28.445Z,309.50
2019-05-18T02:15:03.553Z,306.20
2019-05-18T02:15:39.074Z,309.80
2019-05-18T02:16:14.276Z,316.20
2019-05-18T02:16:49.893Z,316.90
2019-05-18T02:17:25.303Z,317.60
2019-05-18T02:18:00.731Z,303.00
2019-05-18T02:18:36.224Z,301.00
2019-05-18T02:19:11.360Z,289.80
2019-05-18T02:19:46.547Z,335.40
2019-05-18T02:20:21.995Z,331.10
2019-05-18T02:20:57.292Z,340.10
2019-05-18T02:21:32.727Z,327.90
2019-05-18T02:22:08.111Z,331.00
2019-05-18T02:22:43.042Z,340.10
2019-05-18T02:23:18.224Z,339.80
2019-05-18T02:23:53.535Z,319.00
2019-05-18T02:24:28.830Z,312.00
2019-05-18T02:25:04.358Z,327.40
2019-05-18T02:25:39.875Z,339.30
2019-05-18T02:26:15.090Z,354.40
2019-05-18T02:26:50.885Z,332.20
2019-05-18T02:27:26.307Z,323.80
2019-05-18T02:28:01.599Z,320.90
2019-05-18T02:28:36.833Z,314.60
2019-05-18T02:29:12.028Z,314.30
2019-05-18T02:29:47.259Z,332.10
2019-05-18T02:30:22.647Z,349.60
2019-05-18T02:30:58.282Z,332.20
2019-05-18T02:31:33.766Z,343.10
2019-05-18T02:32:09.112Z,335.80
2019-05-18T02:32:44.690Z,333.00
2019-05-18T02:33:19.906Z,325.20
2019-05-18T02:33:54.993Z,324.90
2019-05-18T02:34:30.292Z,311.40
2019-05-18T02:35:05.798Z,324.40
2019-05-18T02:35:41.223Z,338.00
2019-05-18T02:36:16.652Z,332.20
2019-05-18T02:36:52.166Z,333.80
2019-05-18T02:37:27.667Z,319.80
2019-05-18T02:38:03.289Z,326.10
2019-05-18T02:38:38.583Z,298.90
2019-05-18T02:39:14.009Z,302.50
2019-05-18T02:39:49.507Z,321.70
2019-05-18T02:40:24.737Z,310.70
2019-05-18T02:41:00.133Z,312.90
2019-05-18T02:41:35.580Z,305.40
2019-05-18T02:42:10.853Z,316.00
2019-05-18T02:42:46.068Z,335.40
2019-05-18T02:43:21.348Z,333.30
2019-05-18T02:43:56.765Z,331.90
2019-05-18T02:44:31.973Z,311.30
2019-05-18T02:45:07.187Z,313.60
2019-05-18T02:45:42.358Z,345.80
2019-05-18T02:46:17.780Z,343.90
2019-05-18T02:46:52.920Z,335.70
2019-05-18T02:47:28.151Z,328.30
2019-05-18T02:48:03.718Z,326.10
2019-05-18T02:48:48.734Z,330.20
2019-05-18T02:49:14.732Z,323.20
2019-05-18T02:49:50.146Z,318.30
2019-05-18T02:50:25.546Z,314.20
2019-05-18T02:51:00.754Z,311.60
2019-05-18T02:51:35.834Z,315.40
2019-05-18T02:52:11.379Z,320.10
2019-05-18T02:52:46.569Z,333.30
2019-05-18T02:53:22.098Z,338.90
2019-05-18T02:53:57.186Z,325.20
2019-05-18T02:54:32.498Z,310.00
2019-05-18T02:55:07.595Z,314.60
2019-05-18T02:55:42.908Z,307.80
2019-05-18T02:56:18.108Z,325.20
2019-05-18T02:56:53.112Z,316.10
2019-05-18T02:57:28.254Z,294.10
2019-05-18T02:58:03.583Z,327.00
2019-05-18T02:58:39.058Z,330.50
2019-05-18T02:59:14.401Z,315.30
2019-05-18T02:59:49.878Z,308.10
2019-05-18T03:00:25.615Z,310.90
2019-05-18T03:01:01.099Z,319.60
2019-05-18T03:01:36.715Z,318.70
2019-05-18T03:02:12.301Z,339.00
2019-05-18T03:02:47.872Z,340.00
2019-05-18T03:03:23.250Z,327.20
2019-05-18T03:03:58.492Z,299.70
2019-05-18T03:04:33.574Z,302.60
2019-05-18T03:05:08.989Z,290.50
2019-05-18T03:05:44.526Z,314.40
2019-05-18T03:06:20.108Z,321.50
2019-05-18T03:06:55.291Z,307.70
2019-05-18T03:07:30.801Z,324.00
2019-05-18T03:08:05.839Z,311.60
2019-05-18T03:08:41.345Z,303.70
2019-05-18T03:09:16.331Z,316.40
2019-05-18T03:09:51.865Z,318.50
2019-05-18T03:10:27.160Z,309.40
2019-05-18T03:11:02.573Z,302.30
2019-05-18T03:11:38.052Z,322.10
2019-05-18T03:12:13.785Z,322.20
2019-05-18T03:12:48.879Z,334.10
2019-05-18T03:13:24.412Z,339.00
2019-05-18T03:13:59.801Z,349.00
2019-05-18T03:14:35.113Z,329.00
2019-05-18T03:15:10.411Z,307.20
2019-05-18T03:15:45.739Z,322.10
2019-05-18T03:16:21.037Z,331.80
2019-05-18T03:16:56.557Z,322.00
2019-05-18T03:17:31.940Z,315.30
2019-05-18T03:18:07.358Z,310.20
2019-05-18T03:18:42.618Z,323.70
2019-05-18T03:19:17.830Z,320.90
2019-05-18T03:19:53.139Z,321.10
2019-05-18T03:20:28.342Z,312.50
2019-05-18T03:21:03.550Z,335.90
2019-05-18T03:21:38.995Z,322.60
2019-05-18T03:22:14.657Z,301.10
2019-05-18T03:22:49.849Z,323.80
2019-05-18T03:23:25.731Z,346.60
2019-05-18T03:24:01.173Z,344.00
2019-05-18T03:24:36.751Z,332.10
2019-05-18T03:25:12.065Z,306.00
2019-05-18T03:25:47.456Z,299.60
2019-05-18T03:26:22.657Z,313.00
2019-05-18T03:26:57.944Z,309.30
2019-05-18T03:27:33.454Z,303.60
2019-05-18T03:28:08.741Z,297.40
2019-05-18T03:28:43.789Z,292.40
2019-05-18T03:29:19.119Z,305.10
2019-05-18T03:29:54.530Z,336.70
2019-05-18T03:30:30.022Z,328.30
2019-05-18T03:31:05.333Z,312.70
2019-05-18T03:31:40.721Z,324.50
2019-05-18T03:32:16.127Z,316.80
2019-05-18T03:32:51.759Z,288.80
2019-05-18T03:33:29.567Z,311.20
2019-05-18T03:34:02.381Z,326.30
2019-05-18T03:34:37.995Z,333.60
2019-05-18T03:35:13.204Z,332.40
2019-05-18T03:35:48.515Z,313.80
2019-05-18T03:36:23.894Z,300.20
2019-05-18T03:36:59.424Z,329.30
2019-05-18T03:37:34.710Z,317.10
2019-05-18T03:38:10.217Z,325.90
2019-05-18T03:38:45.427Z,329.50
2019-05-18T03:39:20.738Z,304.20
2019-05-18T03:39:55.899Z,322.00
2019-05-18T03:40:31.328Z,344.90
2019-05-18T03:41:06.621Z,329.40
2019-05-18T03:41:41.840Z,320.00
2019-05-18T03:42:17.227Z,323.60
2019-05-18T03:42:52.555Z,337.50
2019-05-18T03:43:28.030Z,336.90
2019-05-18T03:44:03.489Z,338.50
2019-05-18T03:44:38.873Z,321.10
2019-05-18T03:45:14.230Z,318.30
2019-05-18T03:45:49.623Z,327.00
2019-05-18T03:46:25.058Z,311.90
2019-05-18T03:47:00.464Z,317.30
2019-05-18T03:47:35.903Z,319.20
2019-05-18T03:48:11.394Z,328.40
2019-05-18T03:48:46.812Z,350.80
2019-05-18T03:49:26.784Z,345.20
2019-05-18T03:49:57.821Z,326.60
2019-05-18T03:50:33.331Z,332.20
2019-05-18T03:51:08.361Z,346.10
2019-05-18T03:51:43.550Z,329.70
2019-05-18T03:52:18.876Z,327.70
2019-05-18T03:52:54.068Z,329.60
2019-05-18T03:53:29.490Z,337.90
2019-05-18T03:54:04.883Z,334.60
2019-05-18T03:54:40.212Z,323.40
2019-05-18T03:55:15.613Z,318.20
2019-05-18T03:55:51.262Z,315.50
2019-05-18T03:56:26.649Z,313.90
2019-05-18T03:57:01.685Z,329.70
2019-05-18T03:57:36.980Z,345.60
2019-05-18T03:58:12.279Z,348.40
2019-05-18T03:58:47.672Z,339.80
2019-05-18T03:59:22.997Z,333.20
2019-05-18T03:59:58.488Z,313.30
2019-05-18T04:00:33.888Z,312.60
2019-05-18T04:01:09.316Z,298.20
2019-05-18T04:01:44.742Z,303.80
2019-05-18T04:02:20.141Z,313.60
2019-05-18T04:02:55.362Z,293.30
2019-05-18T04:03:30.654Z,316.90
2019-05-18T04:04:06.274Z,344.60
2019-05-18T04:04:41.363Z,354.20
2019-05-18T04:05:16.897Z,327.50
2019-05-18T04:05:52.201Z,310.60
2019-05-18T04:06:27.558Z,321.90
2019-05-18T04:07:02.757Z,319.00
2019-05-18T04:07:38.360Z,332.00
2019-05-18T04:08:13.550Z,321.70
2019-05-18T04:08:48.777Z,320.00
2019-05-18T04:09:24.059Z,326.60
2019-05-18T04:09:59.390Z,322.20
2019-05-18T04:10:34.799Z,322.50
2019-05-18T04:11:10.217Z,333.60
2019-05-18T04:11:45.538Z,312.70
2019-05-18T04:12:20.861Z,322.20
2019-05-18T04:12:56.068Z,332.70
2019-05-18T04:13:31.683Z,335.90
2019-05-18T04:14:08.417Z,340.00
2019-05-18T04:14:41.984Z,357.00
2019-05-18T04:15:17.367Z,339.00
2019-05-18T04:15:52.892Z,323.70
2019-05-18T04:16:28.274Z,314.70
2019-05-18T04:17:03.639Z,329.20
2019-05-18T04:17:38.911Z,335.40
2019-05-18T04:18:14.140Z,341.30
2019-05-18T04:18:49.310Z,338.40
2019-05-18T04:19:24.743Z,319.50
2019-05-18T04:19:59.936Z,325.10
2019-05-18T04:20:35.564Z,345.50
2019-05-18T04:21:10.871Z,332.20
2019-05-18T04:21:46.083Z,325.80
2019-05-18T04:22:21.311Z,308.70
2019-05-18T04:22:56.834Z,336.80
2019-05-18T04:23:32.336Z,342.40
2019-05-18T04:24:07.944Z,335.90
2019-05-18T04:24:43.026Z,335.20
2019-05-18T04:25:18.345Z,320.40
2019-05-18T04:25:53.637Z,328.60
2019-05-18T04:26:28.961Z,326.80
2019-05-18T04:27:04.248Z,327.60
2019-05-18T04:27:39.496Z,327.10
2019-05-18T04:28:14.807Z,324.20
2019-05-18T04:28:50.328Z,311.80
2019-05-18T04:29:25.424Z,330.50
2019-05-18T04:30:00.838Z,354.90
2019-05-18T04:30:36.126Z,334.90
2019-05-18T04:31:11.953Z,305.00
2019-05-18T04:31:47.037Z,324.20
2019-05-18T04:32:22.256Z,324.50
2019-05-18T04:32:57.692Z,330.50
2019-05-18T04:33:32.815Z,333.30
2019-05-18T04:34:08.191Z,343.80
2019-05-18T04:34:43.629Z,329.00
2019-05-18T04:35:18.915Z,318.90
2019-05-18T04:35:54.738Z,322.50
2019-05-18T04:36:30.426Z,342.80
2019-05-18T04:37:05.855Z,360.60
2019-05-18T04:37:41.046Z,368.30
2019-05-18T04:38:16.183Z,344.00
2019-05-18T04:38:51.611Z,320.80
2019-05-18T04:39:26.883Z,313.90
2019-05-18T04:40:02.184Z,334.50
2019-05-18T04:40:37.717Z,368.30
2019-05-18T04:41:13.114Z,365.20
2019-05-18T04:41:48.665Z,335.20
2019-05-18T04:42:23.953Z,343.00
2019-05-18T04:42:59.516Z,344.90
2019-05-18T04:43:34.728Z,330.70
2019-05-18T04:44:10.453Z,325.00
2019-05-18T04:44:45.832Z,324.60
2019-05-18T04:45:21.151Z,341.30
2019-05-18T04:45:56.778Z,358.00
2019-05-18T04:46:32.541Z,330.80
2019-05-18T04:47:08.140Z,321.40
2019-05-18T04:47:47.607Z,335.00
2019-05-18T04:48:19.135Z,344.90
2019-05-18T04:48:54.404Z,348.20
2019-05-18T04:49:29.685Z,348.90
2019-05-18T04:50:06.176Z,356.10
2019-05-18T04:50:40.622Z,333.10
2019-05-18T04:51:16.071Z,323.10
2019-05-18T04:51:51.339Z,321.30
2019-05-18T04:52:26.454Z,326.10
2019-05-18T04:53:01.848Z,322.30
2019-05-18T04:53:37.178Z,308.30
2019-05-18T04:54:12.611Z,307.90
2019-05-18T04:54:48.131Z,313.20
2019-05-18T04:55:23.414Z,300.00
2019-05-18T04:55:58.826Z,296.80
2019-05-18T04:56:33.913Z,288.50
2019-05-18T04:57:09.236Z,290.70
2019-05-18T04:57:44.617Z,312.50
2019-05-18T04:58:19.829Z,298.60
2019-05-18T04:58:55.621Z,271.80
2019-05-18T04:59:31.081Z,246.20
2019-05-18T05:00:06.662Z,247.90
2019-05-18T05:00:42.496Z,235.10
2019-05-18T05:01:17.801Z,236.20
2019-05-18T05:01:52.850Z,256.20
2019-05-18T05:02:28.327Z,252.40
2019-05-18T05:03:03.860Z,244.10
2019-05-18T05:03:39.372Z,235.30
2019-05-18T05:04:14.688Z,225.00
2019-05-18T05:04:53.882Z,236.70
2019-05-18T05:05:26.011Z,265.30
2019-05-18T05:06:01.311Z,257.00
2019-05-18T05:06:36.628Z,249.80
2019-05-18T05:07:12.108Z,221.10
2019-05-18T05:07:47.542Z,227.70
2019-05-18T05:08:23.845Z,233.30
2019-05-18T05:08:59.068Z,228.90
2019-05-18T05:09:34.375Z,262.30
2019-05-18T05:10:09.629Z,254.70
2019-05-18T05:10:45.422Z,235.10
2019-05-18T05:11:20.732Z,218.00
2019-05-18T05:11:56.126Z,225.90
2019-05-18T05:12:31.452Z,237.70
2019-05-18T05:13:07.039Z,230.40
2019-05-18T05:13:42.156Z,223.50
2019-05-18T05:14:17.539Z,228.90
2019-05-18T05:14:53.847Z,238.50
2019-05-18T05:15:29.158Z,234.90
2019-05-18T05:16:04.291Z,230.60
2019-05-18T05:16:39.675Z,229.20
2019-05-18T05:17:15.201Z,240.80
2019-05-18T05:17:50.698Z,231.20
2019-05-18T05:18:25.944Z,206.60
2019-05-18T05:19:01.269Z,227.10
2019-05-18T05:19:36.456Z,230.30
2019-05-18T05:20:19.146Z,218.60
2019-05-18T05:20:47.325Z,216.00
2019-05-18T05:21:22.622Z,223.70
2019-05-18T05:21:57.839Z,222.60
2019-05-18T05:22:32.816Z,208.30
2019-05-18T05:23:08.349Z,196.60
2019-05-18T05:23:43.558Z,209.60
2019-05-18T05:24:18.676Z,214.30
2019-05-18T05:24:53.854Z,219.40
2019-05-18T05:25:29.161Z,201.60
2019-05-18T05:26:04.595Z,200.40
2019-05-18T05:26:40.033Z,214.20
2019-05-18T05:27:15.405Z,232.20
2019-05-18T05:27:50.901Z,235.20
2019-05-18T05:28:26.115Z,243.10
2019-05-18T05:29:01.417Z,233.60
2019-05-18T05:29:36.824Z,236.00
2019-05-18T05:30:13.671Z,228.00
2019-05-18T05:30:49.245Z,218.40
2019-05-18T05:31:24.585Z,207.90
2019-05-18T05:31:59.764Z,229.40
2019-05-18T05:32:35.283Z,232.90
2019-05-18T05:33:10.485Z,235.20
2019-05-18T05:33:46.030Z,236.30
2019-05-18T05:34:21.311Z,223.00
2019-05-18T05:34:56.926Z,227.70
2019-05-18T05:35:32.584Z,231.60
2019-05-18T05:36:07.837Z,227.70
2019-05-18T05:36:43.466Z,229.10
2019-05-18T05:37:18.683Z,228.90
2019-05-18T05:37:53.924Z,217.70
2019-05-18T05:38:29.009Z,244.90
2019-05-18T05:39:04.312Z,245.60
2019-05-18T05:39:39.932Z,234.20
2019-05-18T05:40:15.140Z,231.40
2019-05-18T05:40:50.359Z,232.30
2019-05-18T05:41:25.936Z,250.30
2019-05-18T05:42:01.296Z,265.00
2019-05-18T05:42:36.592Z,247.40
2019-05-18T05:43:12.202Z,237.40
2019-05-18T05:43:47.592Z,261.80
2019-05-18T05:44:22.953Z,232.40
2019-05-18T05:44:58.339Z,258.80
2019-05-18T05:45:33.658Z,252.40
2019-05-18T05:46:09.037Z,241.00
2019-05-18T05:46:44.769Z,253.30
2019-05-18T05:47:20.590Z,243.10
2019-05-18T05:47:55.806Z,245.50
2019-05-18T05:48:31.286Z,262.70
2019-05-18T05:49:06.621Z,243.80
2019-05-18T05:49:41.866Z,225.40
2019-05-18T05:50:16.946Z,234.60
2019-05-18T05:50:52.626Z,237.60
2019-05-18T05:51:28.062Z,235.60
2019-05-18T05:52:03.543Z,250.30
2019-05-18T05:52:39.116Z,224.10
2019-05-18T05:53:14.615Z,215.50
2019-05-18T05:53:50.041Z,254.10
2019-05-18T05:54:25.339Z,249.50
2019-05-18T05:55:00.857Z,253.30
2019-05-18T05:55:36.048Z,251.20
2019-05-18T05:56:11.270Z,241.50
2019-05-18T05:56:46.672Z,239.00
2019-05-18T05:57:21.984Z,247.70
2019-05-18T05:57:57.423Z,260.00
2019-05-18T05:58:32.850Z,256.80
2019-05-18T05:59:08.252Z,242.20
2019-05-18T05:59:43.669Z,233.40
2019-05-18T06:00:18.975Z,248.40
2019-05-18T06:00:54.302Z,253.80
2019-05-18T06:01:29.792Z,246.50
2019-05-18T06:02:05.118Z,241.40
2019-05-18T06:02:40.311Z,251.50
2019-05-18T06:03:15.985Z,252.60
2019-05-18T06:03:51.388Z,265.60
2019-05-18T06:04:26.726Z,274.80
2019-05-18T06:05:02.171Z,274.60
2019-05-18T06:05:37.524Z,280.40
2019-05-18T06:06:13.002Z,300.70
2019-05-18T06:06:48.324Z,296.80
2019-05-18T06:07:23.628Z,272.30
2019-05-18T06:07:58.942Z,275.70
2019-05-18T06:08:34.276Z,278.20
2019-05-18T06:09:10.215Z,284.70
2019-05-18T06:09:45.703Z,279.20
2019-05-18T06:10:21.325Z,288.20
2019-05-18T06:10:56.545Z,278.90
2019-05-18T06:11:31.857Z,274.50
2019-05-18T06:12:07.537Z,269.80
2019-05-18T06:12:42.870Z,278.30
2019-05-18T06:13:18.166Z,281.20
2019-05-18T06:13:53.431Z,277.00
2019-05-18T06:14:28.925Z,275.40
2019-05-18T06:15:04.048Z,283.40
2019-05-18T06:15:39.530Z,275.80
2019-05-18T06:16:14.845Z,270.20
2019-05-18T06:16:50.176Z,281.40
2019-05-18T06:17:25.422Z,285.20
2019-05-18T06:18:00.810Z,302.10
2019-05-18T06:18:36.546Z,311.50
2019-05-18T06:19:11.972Z,314.70
2019-05-18T06:19:47.402Z,309.40
2019-05-18T06:20:22.603Z,325.70
2019-05-18T06:20:57.921Z,325.00
2019-05-18T06:21:33.311Z,302.70
2019-05-18T06:22:08.539Z,298.20
2019-05-18T06:22:43.962Z,306.90
2019-05-18T06:23:19.466Z,301.00
2019-05-18T06:23:54.954Z,303.90
2019-05-18T06:24:30.705Z,296.20
2019-05-18T06:25:06.136Z,299.80
2019-05-18T06:25:41.533Z,304.70
2019-05-18T06:26:16.951Z,316.10
2019-05-18T06:26:52.354Z,317.40
2019-05-18T06:27:27.701Z,321.60
2019-05-18T06:28:03.494Z,311.10
2019-05-18T06:28:39.031Z,307.10
2019-05-18T06:29:14.220Z,301.00
2019-05-18T06:29:49.937Z,288.30
2019-05-18T06:30:45.449Z,295.80
2019-05-18T06:31:23.031Z,294.00
2019-05-18T06:31:56.387Z,294.50
2019-05-18T06:32:31.638Z,286.90
2019-05-18T06:33:06.929Z,300.30
2019-05-18T06:33:42.256Z,304.60
2019-05-18T06:34:17.555Z,300.00
2019-05-18T06:34:53.171Z,298.40
2019-05-18T06:35:28.580Z,317.60
2019-05-18T06:36:03.998Z,315.90
2019-05-18T06:36:39.219Z,318.90
2019-05-18T06:37:14.610Z,309.90
2019-05-18T06:37:50.301Z,322.20
2019-05-18T06:38:25.995Z,318.00
2019-05-18T06:39:01.523Z,304.30
2019-05-18T06:39:37.361Z,312.40
2019-05-18T06:40:12.430Z,308.90
2019-05-18T06:40:47.644Z,304.40
2019-05-18T06:41:22.968Z,296.70
2019-05-18T06:41:58.418Z,300.60
2019-05-18T06:42:33.837Z,296.90
2019-05-18T06:43:09.464Z,231.20
2019-05-18T06:43:45.152Z,196.10
2019-05-18T06:44:20.682Z,185.10
2019-05-18T06:44:55.985Z,203.20
2019-05-18T06:45:31.198Z,218.20
2019-05-18T06:46:06.617Z,213.70
2019-05-18T06:46:42.108Z,244.50
2019-05-18T06:47:17.366Z,225.20
2019-05-18T06:47:52.655Z,224.40
2019-05-18T06:48:27.775Z,234.90
2019-05-18T06:49:03.255Z,251.00
2019-05-18T06:49:38.475Z,245.30
2019-05-18T06:50:13.685Z,227.70
2019-05-18T06:50:48.906Z,233.50
2019-05-18T06:51:24.523Z,263.40
2019-05-18T06:51:59.826Z,268.10
2019-05-18T06:52:35.365Z,251.80
2019-05-18T06:53:10.560Z,252.80
2019-05-18T06:53:45.880Z,266.20
2019-05-18T06:54:21.085Z,275.60
2019-05-18T06:54:56.511Z,275.20
2019-05-18T06:55:32.122Z,263.90
2019-05-18T06:56:07.412Z,269.60
2019-05-18T06:56:43.031Z,275.10
2019-05-18T06:57:18.103Z,280.30
2019-05-18T06:57:56.579Z,292.70
2019-05-18T06:58:29.373Z,290.60
2019-05-18T06:59:04.294Z,293.40
2019-05-18T06:59:39.899Z,289.90
2019-05-18T07:00:15.125Z,299.80
2019-05-18T07:00:50.228Z,306.50
2019-05-18T07:01:25.851Z,301.30
2019-05-18T07:02:01.364Z,294.60
2019-05-18T07:02:37.085Z,305.00
2019-05-18T07:03:12.604Z,309.90
2019-05-18T07:03:48.006Z,290.20
2019-05-18T07:04:23.430Z,288.80
2019-05-18T07:04:59.101Z,289.20
2019-05-18T07:05:34.570Z,282.00
2019-05-18T07:06:09.952Z,277.90
2019-05-18T07:06:45.372Z,284.30
2019-05-18T07:07:20.560Z,288.50
2019-05-18T07:07:55.903Z,284.00
2019-05-18T07:08:31.450Z,290.60
2019-05-18T07:09:13.136Z,282.80
2019-05-18T07:09:42.360Z,266.20
2019-05-18T07:10:17.843Z,266.30
2019-05-18T07:10:53.055Z,270.80
2019-05-18T07:11:28.247Z,272.30
2019-05-18T07:12:03.577Z,281.80
2019-05-18T07:12:39.095Z,272.90
2019-05-18T07:13:14.257Z,262.20
2019-05-18T07:13:49.544Z,271.30
2019-05-18T07:14:25.997Z,279.00
2019-05-18T07:15:00.640Z,283.80
2019-05-18T07:15:35.695Z,274.40
2019-05-18T07:16:11.226Z,282.10
2019-05-18T07:16:46.823Z,293.20
2019-05-18T07:17:22.253Z,296.80
2019-05-18T07:17:57.678Z,293.20
2019-05-18T07:18:33.116Z,286.10
2019-05-18T07:19:08.413Z,290.80
2019-05-18T07:19:43.736Z,297.00
2019-05-18T07:20:18.937Z,292.50
2019-05-18T07:20:54.164Z,291.40
2019-05-18T07:21:29.366Z,303.90